sensor_id;sensor_type;location;lat;lon;timestamp;P1;durP1;ratioP1;P2;durP2;ratioP2
26034;SDS011;13809;48.632;11.576;2023-12-14T00:02:15;1.97;;;1.87;;
26034;SDS011;13809;48.632;11.576;2023-12-14T00:07:18;2.50;;;2.30;;
26034;SDS011;13809;48.632;11.576;2023-12-14T00:12:24;2.80;;;2.60;;
26034;SDS011;13809;48.632;11.576;2023-12-14T00:17:27;2.97;;;2.77;;
26034;SDS011;13809;48.632;11.576;2023-12-14T00:22:30;2.90;;;2.70;;
26034;SDS011;13809;48.632;11.576;2023-12-14T00:27:36;2.90;;;2.70;;
26034;SDS011;13809;48.632;11.576;2023-12-14T00:32:40;2.47;;;2.27;;
26034;SDS011;13809;48.632;11.576;2023-12-14T00:37:43;2.63;;;2.43;;
26034;SDS011;13809;48.632;11.576;2023-12-14T00:42:49;2.83;;;2.63;;
26034;SDS011;13809;48.632;11.576;2023-12-14T00:47:52;2.73;;;2.53;;
26034;SDS011;13809;48.632;11.576;2023-12-14T00:52:55;2.93;;;2.77;;
26034;SDS011;13809;48.632;11.576;2023-12-14T00:58:00;2.93;;;2.73;;
26034;SDS011;13809;48.632;11.576;2023-12-14T01:03:03;3.00;;;2.80;;
26034;SDS011;13809;48.632;11.576;2023-12-14T01:08:07;3.27;;;3.07;;
26034;SDS011;13809;48.632;11.576;2023-12-14T01:13:12;3.40;;;3.20;;
26034;SDS011;13809;48.632;11.576;2023-12-14T01:18:15;3.70;;;3.40;;
26034;SDS011;13809;48.632;11.576;2023-12-14T01:23:19;3.70;;;3.50;;
26034;SDS011;13809;48.632;11.576;2023-12-14T01:28:23;3.90;;;3.60;;
26034;SDS011;13809;48.632;11.576;2023-12-14T01:33:27;4.10;;;3.80;;
26034;SDS011;13809;48.632;11.576;2023-12-14T01:38:30;4.20;;;3.90;;
26034;SDS011;13809;48.632;11.576;2023-12-14T01:43:34;4.40;;;4.10;;
26034;SDS011;13809;48.632;11.576;2023-12-14T01:48:38;4.43;;;4.10;;
26034;SDS011;13809;48.632;11.576;2023-12-14T01:53:41;4.60;;;4.30;;
26034;SDS011;13809;48.632;11.576;2023-12-14T01:58:45;4.87;;;4.57;;
26034;SDS011;13809;48.632;11.576;2023-12-14T02:03:49;5.10;;;4.70;;
26034;SDS011;13809;48.632;11.576;2023-12-14T02:08:54;4.63;;;4.33;;
26034;SDS011;13809;48.632;11.576;2023-12-14T02:14:02;4.77;;;4.47;;
26034;SDS011;13809;48.632;11.576;2023-12-14T02:19:06;4.60;;;4.30;;
26034;SDS011;13809;48.632;11.576;2023-12-14T02:24:11;4.23;;;3.93;;
26034;SDS011;13809;48.632;11.576;2023-12-14T02:29:14;4.27;;;3.97;;
26034;SDS011;13809;48.632;11.576;2023-12-14T02:34:17;4.43;;;4.13;;
26034;SDS011;13809;48.632;11.576;2023-12-14T02:39:23;4.57;;;4.27;;
26034;SDS011;13809;48.632;11.576;2023-12-14T02:44:26;4.67;;;4.37;;
26034;SDS011;13809;48.632;11.576;2023-12-14T02:49:29;4.57;;;4.17;;
26034;SDS011;13809;48.632;11.576;2023-12-14T02:54:34;4.30;;;4.00;;
26034;SDS011;13809;48.632;11.576;2023-12-14T02:59:40;4.50;;;4.20;;
26034;SDS011;13809;48.632;11.576;2023-12-14T03:04:43;4.40;;;4.10;;
26034;SDS011;13809;48.632;11.576;2023-12-14T03:09:48;4.80;;;4.40;;
26034;SDS011;13809;48.632;11.576;2023-12-14T03:14:51;5.20;;;4.80;;
26034;SDS011;13809;48.632;11.576;2023-12-14T03:19:55;6.57;;;6.07;;
26034;SDS011;13809;48.632;11.576;2023-12-14T03:24:59;7.23;;;6.60;;
26034;SDS011;13809;48.632;11.576;2023-12-14T03:30:03;6.70;;;6.20;;
26034;SDS011;13809;48.632;11.576;2023-12-14T03:35:09;7.60;;;7.00;;
26034;SDS011;13809;48.632;11.576;2023-12-14T03:40:14;7.93;;;7.33;;
26034;SDS011;13809;48.632;11.576;2023-12-14T03:45:18;8.20;;;7.50;;
26034;SDS011;13809;48.632;11.576;2023-12-14T03:50:21;8.37;;;7.67;;
26034;SDS011;13809;48.632;11.576;2023-12-14T03:55:25;8.00;;;7.30;;
26034;SDS011;13809;48.632;11.576;2023-12-14T04:00:29;7.70;;;7.10;;
26034;SDS011;13809;48.632;11.576;2023-12-14T04:05:32;7.97;;;7.27;;
26034;SDS011;13809;48.632;11.576;2023-12-14T04:10:37;7.27;;;6.73;;
26034;SDS011;13809;48.632;11.576;2023-12-14T04:15:41;7.20;;;6.60;;
26034;SDS011;13809;48.632;11.576;2023-12-14T04:20:44;7.57;;;6.93;;
26034;SDS011;13809;48.632;11.576;2023-12-14T04:25:49;7.27;;;6.67;;
26034;SDS011;13809;48.632;11.576;2023-12-14T04:30:52;8.07;;;7.43;;
26034;SDS011;13809;48.632;11.576;2023-12-14T04:35:55;7.80;;;7.10;;
26034;SDS011;13809;48.632;11.576;2023-12-14T04:41:00;7.90;;;7.20;;
26034;SDS011;13809;48.632;11.576;2023-12-14T04:46:03;8.27;;;7.67;;
26034;SDS011;13809;48.632;11.576;2023-12-14T04:51:10;7.97;;;7.37;;
26034;SDS011;13809;48.632;11.576;2023-12-14T04:56:16;8.33;;;7.73;;
26034;SDS011;13809;48.632;11.576;2023-12-14T05:01:19;8.40;;;7.80;;
26034;SDS011;13809;48.632;11.576;2023-12-14T05:06:22;8.50;;;7.83;;
26034;SDS011;13809;48.632;11.576;2023-12-14T05:11:27;8.73;;;8.03;;
26034;SDS011;13809;48.632;11.576;2023-12-14T05:16:30;8.57;;;7.90;;
26034;SDS011;13809;48.632;11.576;2023-12-14T05:21:33;9.77;;;9.00;;
26034;SDS011;13809;48.632;11.576;2023-12-14T05:26:39;9.47;;;8.33;;
26034;SDS011;13809;48.632;11.576;2023-12-14T05:31:42;10.83;;;9.93;;
26034;SDS011;13809;48.632;11.576;2023-12-14T05:36:46;9.13;;;8.33;;
26034;SDS011;13809;48.632;11.576;2023-12-14T05:41:50;9.50;;;8.70;;
26034;SDS011;13809;48.632;11.576;2023-12-14T05:46:54;9.77;;;8.87;;
26034;SDS011;13809;48.632;11.576;2023-12-14T05:51:58;8.83;;;8.10;;
26034;SDS011;13809;48.632;11.576;2023-12-14T05:57:03;9.33;;;8.50;;
26034;SDS011;13809;48.632;11.576;2023-12-14T06:02:07;9.33;;;8.53;;
26034;SDS011;13809;48.632;11.576;2023-12-14T06:07:10;10.03;;;9.03;;
26034;SDS011;13809;48.632;11.576;2023-12-14T06:12:15;9.40;;;8.60;;
26034;SDS011;13809;48.632;11.576;2023-12-14T06:17:18;9.30;;;8.53;;
26034;SDS011;13809;48.632;11.576;2023-12-14T06:22:21;9.43;;;8.73;;
26034;SDS011;13809;48.632;11.576;2023-12-14T06:27:26;10.00;;;9.20;;
26034;SDS011;13809;48.632;11.576;2023-12-14T06:32:29;9.37;;;8.60;;
26034;SDS011;13809;48.632;11.576;2023-12-14T06:37:33;9.67;;;8.87;;
26034;SDS011;13809;48.632;11.576;2023-12-14T06:42:38;9.47;;;8.67;;
26034;SDS011;13809;48.632;11.576;2023-12-14T06:47:41;9.20;;;8.50;;
26034;SDS011;13809;48.632;11.576;2023-12-14T06:52:45;9.63;;;8.83;;
26034;SDS011;13809;48.632;11.576;2023-12-14T06:57:50;9.33;;;8.63;;
26034;SDS011;13809;48.632;11.576;2023-12-14T07:02:53;8.93;;;8.13;;
26034;SDS011;13809;48.632;11.576;2023-12-14T07:07:57;8.17;;;7.47;;
26034;SDS011;13809;48.632;11.576;2023-12-14T07:13:01;10.37;;;9.40;;
26034;SDS011;13809;48.632;11.576;2023-12-14T07:18:04;9.63;;;8.83;;
26034;SDS011;13809;48.632;11.576;2023-12-14T07:23:07;8.63;;;7.93;;
26034;SDS011;13809;48.632;11.576;2023-12-14T07:28:12;8.80;;;8.10;;
26034;SDS011;13809;48.632;11.576;2023-12-14T07:33:15;8.90;;;8.20;;
26034;SDS011;13809;48.632;11.576;2023-12-14T07:38:19;8.97;;;8.27;;
26034;SDS011;13809;48.632;11.576;2023-12-14T07:43:24;8.73;;;8.03;;
26034;SDS011;13809;48.632;11.576;2023-12-14T07:48:27;8.10;;;7.50;;
26034;SDS011;13809;48.632;11.576;2023-12-14T07:53:31;8.17;;;7.47;;
26034;SDS011;13809;48.632;11.576;2023-12-14T07:58:35;7.93;;;7.33;;
26034;SDS011;13809;48.632;11.576;2023-12-14T08:03:39;7.97;;;7.27;;
26034;SDS011;13809;48.632;11.576;2023-12-14T08:08:42;7.67;;;6.97;;
26034;SDS011;13809;48.632;11.576;2023-12-14T08:13:47;7.83;;;7.17;;
26034;SDS011;13809;48.632;11.576;2023-12-14T08:18:50;7.57;;;6.97;;
26034;SDS011;13809;48.632;11.576;2023-12-14T08:23:54;7.20;;;6.60;;
26034;SDS011;13809;48.632;11.576;2023-12-14T08:28:58;6.70;;;6.20;;
26034;SDS011;13809;48.632;11.576;2023-12-14T08:34:01;6.97;;;6.33;;
26034;SDS011;13809;48.632;11.576;2023-12-14T08:39:05;6.73;;;6.23;;
26034;SDS011;13809;48.632;11.576;2023-12-14T08:44:10;6.30;;;5.70;;
26034;SDS011;13809;48.632;11.576;2023-12-14T08:49:13;5.97;;;5.47;;
26034;SDS011;13809;48.632;11.576;2023-12-14T08:54:17;5.80;;;5.30;;
26034;SDS011;13809;48.632;11.576;2023-12-14T08:59:22;6.53;;;5.83;;
26034;SDS011;13809;48.632;11.576;2023-12-14T09:04:25;5.83;;;5.33;;
26034;SDS011;13809;48.632;11.576;2023-12-14T09:09:28;6.67;;;6.07;;
26034;SDS011;13809;48.632;11.576;2023-12-14T09:14:33;6.50;;;6.00;;
26034;SDS011;13809;48.632;11.576;2023-12-14T09:19:36;6.00;;;5.50;;
26034;SDS011;13809;48.632;11.576;2023-12-14T09:24:39;6.37;;;5.83;;
26034;SDS011;13809;48.632;11.576;2023-12-14T09:29:45;6.37;;;5.70;;
26034;SDS011;13809;48.632;11.576;2023-12-14T09:34:48;6.47;;;5.93;;
26034;SDS011;13809;48.632;11.576;2023-12-14T09:39:53;5.77;;;5.30;;
26034;SDS011;13809;48.632;11.576;2023-12-14T09:44:58;6.03;;;5.37;;
26034;SDS011;13809;48.632;11.576;2023-12-14T09:50:01;5.57;;;5.10;;
26034;SDS011;13809;48.632;11.576;2023-12-14T09:55:06;6.50;;;6.00;;
26034;SDS011;13809;48.632;11.576;2023-12-14T10:00:12;6.00;;;5.50;;
26034;SDS011;13809;48.632;11.576;2023-12-14T10:05:34;5.97;;;5.13;;
26034;SDS011;13809;48.632;11.576;2023-12-14T10:10:38;5.50;;;5.00;;
26034;SDS011;13809;48.632;11.576;2023-12-14T10:15:43;4.90;;;4.50;;
26034;SDS011;13809;48.632;11.576;2023-12-14T10:20:48;4.53;;;4.13;;
26034;SDS011;13809;48.632;11.576;2023-12-14T10:25:52;4.77;;;4.37;;
26034;SDS011;13809;48.632;11.576;2023-12-14T10:30:57;5.33;;;4.80;;
26034;SDS011;13809;48.632;11.576;2023-12-14T10:36:00;5.53;;;4.50;;
26034;SDS011;13809;48.632;11.576;2023-12-14T10:41:04;4.60;;;4.13;;
26034;SDS011;13809;48.632;11.576;2023-12-14T10:46:10;4.27;;;3.87;;
26034;SDS011;13809;48.632;11.576;2023-12-14T10:51:14;3.70;;;3.40;;
26034;SDS011;13809;48.632;11.576;2023-12-14T10:56:20;4.23;;;3.93;;
26034;SDS011;13809;48.632;11.576;2023-12-14T11:01:24;4.50;;;4.10;;
26034;SDS011;13809;48.632;11.576;2023-12-14T11:06:29;4.47;;;4.07;;
26034;SDS011;13809;48.632;11.576;2023-12-14T11:11:40;4.67;;;4.07;;
26034;SDS011;13809;48.632;11.576;2023-12-14T11:16:47;4.60;;;4.30;;
26034;SDS011;13809;48.632;11.576;2023-12-14T11:22:08;4.70;;;4.30;;
26034;SDS011;13809;48.632;11.576;2023-12-14T11:27:16;4.60;;;4.30;;
26034;SDS011;13809;48.632;11.576;2023-12-14T11:32:26;5.27;;;4.77;;
26034;SDS011;13809;48.632;11.576;2023-12-14T11:37:29;6.70;;;6.10;;
26034;SDS011;13809;48.632;11.576;2023-12-14T11:42:36;6.47;;;5.90;;
26034;SDS011;13809;48.632;11.576;2023-12-14T11:47:41;6.13;;;5.63;;
26034;SDS011;13809;48.632;11.576;2023-12-14T11:52:44;6.97;;;6.13;;
26034;SDS011;13809;48.632;11.576;2023-12-14T11:57:48;8.37;;;7.30;;
26034;SDS011;13809;48.632;11.576;2023-12-14T12:02:55;8.17;;;6.70;;
26034;SDS011;13809;48.632;11.576;2023-12-14T12:08:10;6.33;;;5.80;;
26034;SDS011;13809;48.632;11.576;2023-12-14T12:13:15;7.83;;;6.47;;
26034;SDS011;13809;48.632;11.576;2023-12-14T12:18:20;6.53;;;5.93;;
26034;SDS011;13809;48.632;11.576;2023-12-14T12:23:24;6.00;;;5.40;;
26034;SDS011;13809;48.632;11.576;2023-12-14T12:28:27;6.40;;;5.70;;
26034;SDS011;13809;48.632;11.576;2023-12-14T12:33:33;7.43;;;6.63;;
26034;SDS011;13809;48.632;11.576;2023-12-14T12:38:39;6.33;;;5.73;;
26034;SDS011;13809;48.632;11.576;2023-12-14T12:43:42;5.90;;;5.40;;
26034;SDS011;13809;48.632;11.576;2023-12-14T12:48:47;6.50;;;5.70;;
26034;SDS011;13809;48.632;11.576;2023-12-14T12:53:53;10.13;;;6.47;;
26034;SDS011;13809;48.632;11.576;2023-12-14T12:59:12;6.63;;;6.00;;
26034;SDS011;13809;48.632;11.576;2023-12-14T13:04:20;5.90;;;5.20;;
26034;SDS011;13809;48.632;11.576;2023-12-14T13:09:24;6.50;;;5.90;;
26034;SDS011;13809;48.632;11.576;2023-12-14T13:14:28;6.53;;;6.03;;
26034;SDS011;13809;48.632;11.576;2023-12-14T13:19:33;7.87;;;6.70;;
26034;SDS011;13809;48.632;11.576;2023-12-14T13:24:52;7.90;;;7.07;;
26034;SDS011;13809;48.632;11.576;2023-12-14T13:29:55;6.13;;;5.57;;
26034;SDS011;13809;48.632;11.576;2023-12-14T13:35:00;6.90;;;6.00;;
26034;SDS011;13809;48.632;11.576;2023-12-14T13:40:04;6.63;;;6.00;;
26034;SDS011;13809;48.632;11.576;2023-12-14T13:45:13;6.80;;;5.57;;
26034;SDS011;13809;48.632;11.576;2023-12-14T13:50:18;6.57;;;5.87;;
26034;SDS011;13809;48.632;11.576;2023-12-14T13:55:21;5.63;;;5.13;;
26034;SDS011;13809;48.632;11.576;2023-12-14T14:00:24;5.87;;;5.27;;
26034;SDS011;13809;48.632;11.576;2023-12-14T14:05:29;6.23;;;5.50;;
26034;SDS011;13809;48.632;11.576;2023-12-14T14:10:32;6.40;;;5.53;;
26034;SDS011;13809;48.632;11.576;2023-12-14T14:15:36;6.17;;;5.57;;
26034;SDS011;13809;48.632;11.576;2023-12-14T14:20:40;5.63;;;5.13;;
26034;SDS011;13809;48.632;11.576;2023-12-14T14:25:43;6.23;;;5.60;;
26034;SDS011;13809;48.632;11.576;2023-12-14T14:30:47;5.50;;;5.00;;
26034;SDS011;13809;48.632;11.576;2023-12-14T14:35:52;6.50;;;5.47;;
26034;SDS011;13809;48.632;11.576;2023-12-14T14:40:56;5.70;;;5.20;;
26034;SDS011;13809;48.632;11.576;2023-12-14T14:45:59;6.07;;;5.47;;
26034;SDS011;13809;48.632;11.576;2023-12-14T14:51:04;5.73;;;4.97;;
26034;SDS011;13809;48.632;11.576;2023-12-14T14:56:10;6.37;;;4.83;;
26034;SDS011;13809;48.632;11.576;2023-12-14T15:01:14;7.17;;;4.50;;
26034;SDS011;13809;48.632;11.576;2023-12-14T15:06:19;4.57;;;4.17;;
26034;SDS011;13809;48.632;11.576;2023-12-14T15:11:24;5.07;;;4.50;;
26034;SDS011;13809;48.632;11.576;2023-12-14T15:16:27;4.83;;;4.33;;
26034;SDS011;13809;48.632;11.576;2023-12-14T15:21:32;4.20;;;3.80;;
26034;SDS011;13809;48.632;11.576;2023-12-14T15:26:35;5.67;;;4.20;;
26034;SDS011;13809;48.632;11.576;2023-12-14T15:31:39;4.83;;;4.40;;
26034;SDS011;13809;48.632;11.576;2023-12-14T15:36:44;6.37;;;5.40;;
26034;SDS011;13809;48.632;11.576;2023-12-14T15:41:48;5.20;;;4.10;;
26034;SDS011;13809;48.632;11.576;2023-12-14T15:46:51;4.60;;;4.20;;
26034;SDS011;13809;48.632;11.576;2023-12-14T15:51:55;6.20;;;4.00;;
26034;SDS011;13809;48.632;11.576;2023-12-14T15:56:59;4.83;;;4.03;;
26034;SDS011;13809;48.632;11.576;2023-12-14T16:02:02;5.27;;;3.70;;
26034;SDS011;13809;48.632;11.576;2023-12-14T16:07:07;4.57;;;4.10;;
26034;SDS011;13809;48.632;11.576;2023-12-14T16:12:10;4.97;;;4.47;;
26034;SDS011;13809;48.632;11.576;2023-12-14T16:17:13;4.53;;;4.13;;
26034;SDS011;13809;48.632;11.576;2023-12-14T16:22:18;4.60;;;4.10;;
26034;SDS011;13809;48.632;11.576;2023-12-14T16:27:21;3.83;;;3.43;;
26034;SDS011;13809;48.632;11.576;2023-12-14T16:32:24;4.73;;;3.97;;
26034;SDS011;13809;48.632;11.576;2023-12-14T16:37:30;4.43;;;4.00;;
26034;SDS011;13809;48.632;11.576;2023-12-14T16:42:33;5.97;;;4.30;;
26034;SDS011;13809;48.632;11.576;2023-12-14T16:47:36;5.17;;;4.40;;
26034;SDS011;13809;48.632;11.576;2023-12-14T16:52:43;4.63;;;4.20;;
26034;SDS011;13809;48.632;11.576;2023-12-14T16:57:46;4.90;;;4.40;;
26034;SDS011;13809;48.632;11.576;2023-12-14T17:02:50;5.23;;;4.43;;
26034;SDS011;13809;48.632;11.576;2023-12-14T17:07:54;6.37;;;5.63;;
26034;SDS011;13809;48.632;11.576;2023-12-14T17:12:58;6.40;;;5.70;;
26034;SDS011;13809;48.632;11.576;2023-12-14T17:18:01;7.23;;;6.50;;
26034;SDS011;13809;48.632;11.576;2023-12-14T17:23:06;7.40;;;6.70;;
26034;SDS011;13809;48.632;11.576;2023-12-14T17:28:09;8.07;;;7.27;;
26034;SDS011;13809;48.632;11.576;2023-12-14T17:33:12;10.97;;;8.87;;
26034;SDS011;13809;48.632;11.576;2023-12-14T17:38:17;10.23;;;8.43;;
26034;SDS011;13809;48.632;11.576;2023-12-14T17:43:20;9.47;;;8.50;;
26034;SDS011;13809;48.632;11.576;2023-12-14T17:48:23;9.03;;;7.93;;
26034;SDS011;13809;48.632;11.576;2023-12-14T17:53:28;10.10;;;9.10;;
26034;SDS011;13809;48.632;11.576;2023-12-14T17:58:31;9.00;;;8.20;;
26034;SDS011;13809;48.632;11.576;2023-12-14T18:03:34;9.07;;;7.10;;
26034;SDS011;13809;48.632;11.576;2023-12-14T18:08:39;7.97;;;7.13;;
26034;SDS011;13809;48.632;11.576;2023-12-14T18:13:43;6.60;;;5.90;;
26034;SDS011;13809;48.632;11.576;2023-12-14T18:18:46;6.00;;;5.50;;
26034;SDS011;13809;48.632;11.576;2023-12-14T18:23:51;7.10;;;6.40;;
26034;SDS011;13809;48.632;11.576;2023-12-14T18:28:54;9.50;;;6.57;;
26034;SDS011;13809;48.632;11.576;2023-12-14T18:33:57;8.30;;;7.50;;
26034;SDS011;13809;48.632;11.576;2023-12-14T18:39:02;6.83;;;6.07;;
26034;SDS011;13809;48.632;11.576;2023-12-14T18:44:05;8.77;;;7.10;;
26034;SDS011;13809;48.632;11.576;2023-12-14T18:49:09;9.00;;;8.10;;
26034;SDS011;13809;48.632;11.576;2023-12-14T18:54:14;8.07;;;7.23;;
26034;SDS011;13809;48.632;11.576;2023-12-14T18:59:17;7.90;;;7.10;;
26034;SDS011;13809;48.632;11.576;2023-12-14T19:04:20;8.50;;;7.63;;
26034;SDS011;13809;48.632;11.576;2023-12-14T19:09:25;7.03;;;6.27;;
26034;SDS011;13809;48.632;11.576;2023-12-14T19:14:28;7.17;;;6.00;;
26034;SDS011;13809;48.632;11.576;2023-12-14T19:19:31;5.20;;;4.70;;
26034;SDS011;13809;48.632;11.576;2023-12-14T19:24:36;4.53;;;4.13;;
26034;SDS011;13809;48.632;11.576;2023-12-14T19:29:40;4.60;;;3.97;;
26034;SDS011;13809;48.632;11.576;2023-12-14T19:34:44;3.50;;;3.20;;
26034;SDS011;13809;48.632;11.576;2023-12-14T19:39:48;3.23;;;3.03;;
26034;SDS011;13809;48.632;11.576;2023-12-14T19:44:51;3.00;;;2.80;;
26034;SDS011;13809;48.632;11.576;2023-12-14T19:49:55;4.23;;;3.70;;
26034;SDS011;13809;48.632;11.576;2023-12-14T19:55:03;5.40;;;4.77;;
26034;SDS011;13809;48.632;11.576;2023-12-14T20:00:07;4.27;;;3.90;;
26034;SDS011;13809;48.632;11.576;2023-12-14T20:05:12;4.37;;;3.97;;
26034;SDS011;13809;48.632;11.576;2023-12-14T20:10:17;4.27;;;3.87;;
26034;SDS011;13809;48.632;11.576;2023-12-14T20:15:20;4.90;;;3.80;;
26034;SDS011;13809;48.632;11.576;2023-12-14T20:20:24;4.10;;;3.80;;
26034;SDS011;13809;48.632;11.576;2023-12-14T20:25:30;4.43;;;4.10;;
26034;SDS011;13809;48.632;11.576;2023-12-14T20:30:34;4.17;;;3.77;;
26034;SDS011;13809;48.632;11.576;2023-12-14T20:35:37;4.33;;;4.03;;
26034;SDS011;13809;48.632;11.576;2023-12-14T20:40:42;4.43;;;4.13;;
26034;SDS011;13809;48.632;11.576;2023-12-14T20:45:45;5.00;;;4.60;;
26034;SDS011;13809;48.632;11.576;2023-12-14T20:50:49;4.60;;;4.20;;
26034;SDS011;13809;48.632;11.576;2023-12-14T20:55:53;4.77;;;4.37;;
26034;SDS011;13809;48.632;11.576;2023-12-14T21:00:57;4.77;;;4.37;;
26034;SDS011;13809;48.632;11.576;2023-12-14T21:06:01;4.90;;;4.50;;
26034;SDS011;13809;48.632;11.576;2023-12-14T21:11:06;5.37;;;4.93;;
26034;SDS011;13809;48.632;11.576;2023-12-14T21:16:09;4.60;;;4.30;;
26034;SDS011;13809;48.632;11.576;2023-12-14T21:21:13;4.57;;;4.20;;
26034;SDS011;13809;48.632;11.576;2023-12-14T21:26:18;4.33;;;4.03;;
26034;SDS011;13809;48.632;11.576;2023-12-14T21:31:22;4.10;;;3.80;;
26034;SDS011;13809;48.632;11.576;2023-12-14T21:36:25;4.73;;;4.40;;
26034;SDS011;13809;48.632;11.576;2023-12-14T21:41:30;5.13;;;4.70;;
26034;SDS011;13809;48.632;11.576;2023-12-14T21:46:34;6.50;;;5.90;;
26034;SDS011;13809;48.632;11.576;2023-12-14T21:51:37;5.50;;;5.03;;
26034;SDS011;13809;48.632;11.576;2023-12-14T21:56:41;4.67;;;3.90;;
26034;SDS011;13809;48.632;11.576;2023-12-14T22:01:45;4.50;;;4.20;;
26034;SDS011;13809;48.632;11.576;2023-12-14T22:06:48;4.10;;;3.80;;
26034;SDS011;13809;48.632;11.576;2023-12-14T22:11:54;4.67;;;4.27;;
26034;SDS011;13809;48.632;11.576;2023-12-14T22:16:57;4.33;;;4.03;;
26034;SDS011;13809;48.632;11.576;2023-12-14T22:22:02;4.57;;;4.27;;
26034;SDS011;13809;48.632;11.576;2023-12-14T22:27:07;4.50;;;4.10;;
26034;SDS011;13809;48.632;11.576;2023-12-14T22:32:10;4.80;;;4.40;;
26034;SDS011;13809;48.632;11.576;2023-12-14T22:37:13;4.67;;;4.27;;
26034;SDS011;13809;48.632;11.576;2023-12-14T22:42:17;4.93;;;4.53;;
26034;SDS011;13809;48.632;11.576;2023-12-14T22:47:21;4.67;;;4.27;;
26034;SDS011;13809;48.632;11.576;2023-12-14T22:52:24;5.30;;;4.90;;
26034;SDS011;13809;48.632;11.576;2023-12-14T22:57:31;4.70;;;4.30;;
26034;SDS011;13809;48.632;11.576;2023-12-14T23:02:34;4.43;;;4.03;;
26034;SDS011;13809;48.632;11.576;2023-12-14T23:07:39;3.90;;;3.60;;
26034;SDS011;13809;48.632;11.576;2023-12-14T23:12:44;3.73;;;3.43;;
26034;SDS011;13809;48.632;11.576;2023-12-14T23:17:47;2.80;;;2.60;;
26034;SDS011;13809;48.632;11.576;2023-12-14T23:22:55;2.60;;;2.50;;
26034;SDS011;13809;48.632;11.576;2023-12-14T23:28:00;2.53;;;2.33;;
26034;SDS011;13809;48.632;11.576;2023-12-14T23:33:03;2.77;;;2.53;;
26034;SDS011;13809;48.632;11.576;2023-12-14T23:38:06;2.30;;;2.20;;
26034;SDS011;13809;48.632;11.576;2023-12-14T23:43:11;2.47;;;2.30;;
26034;SDS011;13809;48.632;11.576;2023-12-14T23:48:14;2.60;;;2.40;;
26034;SDS011;13809;48.632;11.576;2023-12-14T23:53:17;2.73;;;2.53;;
26034;SDS011;13809;48.632;11.576;2023-12-14T23:58:22;2.60;;;2.40;;
